Time;durP1;ratioP1;P1;durP2;ratioP2;P2;SDS_P1;SDS_P2;PMS_P1;PMS_P2;Temp;Humidity;BMP_temperature;BMP_pressure;BME280_temperature;BME280_humidity;BME280_pressure;Samples;Min_cycle;Max_cycle;Signal;HPM_P1;HPM_P2
2021/12/14 00:01:34;;;;;;;50.60;23.97;;;;;;;12.20;83.06;101791.81;5036658;28;20528;-72
2021/12/14 00:04:05;;;;;;;51.97;24.53;;;;;;;12.13;82.98;101787.69;5053079;28;20157;-73
2021/12/14 00:06:31;;;;;;;56.77;25.37;;;;;;;11.82;84.08;101785.47;5053699;28;20676;-73
2021/12/14 00:08:58;;;;;;;48.17;24.17;;;;;;;12.00;83.72;101799.88;5054188;28;20202;-73
2021/12/14 00:16:39;;;;;;;44.67;24.33;;;;;;;12.49;82.50;101805.72;5032058;28;20230;-73
2021/12/14 00:19:05;;;;;;;63.70;26.77;;;;;;;12.70;80.60;101788.69;5053756;28;20263;-73
2021/12/14 00:21:31;;;;;;;51.80;25.60;;;;;;;12.55;81.04;101785.81;5052303;28;20199;-73
2021/12/14 00:24:07;;;;;;;56.30;26.33;;;;;;;12.23;82.73;101803.31;5052557;28;20175;-73
2021/12/14 00:26:53;;;;;;;57.60;26.37;;;;;;;12.18;81.51;101777.66;5054403;28;20229;-72
2021/12/14 00:29:22;;;;;;;54.00;25.60;;;;;;;12.28;82.21;101790.63;5052605;28;20152;-73
2021/12/14 00:31:48;;;;;;;62.37;27.07;;;;;;;12.09;81.80;101786.09;5053377;28;20262;-74
2021/12/14 00:34:22;;;;;;;59.23;27.13;;;;;;;12.49;82.03;101795.00;5052151;28;20163;-73
2021/12/14 00:36:49;;;;;;;66.57;27.90;;;;;;;12.19;82.04;101790.09;5053811;28;20699;-73
2021/12/14 00:39:14;;;;;;;60.60;27.27;;;;;;;12.18;83.09;101812.44;5053370;28;20168;-72
2021/12/14 00:41:40;;;;;;;63.50;28.60;;;;;;;12.19;83.20;101813.31;5051177;28;20201;-72
2021/12/14 00:44:07;;;;;;;56.80;27.07;;;;;;;12.05;83.54;101805.03;5051975;28;20544;-72
2021/12/14 00:46:35;;;;;;;67.40;27.70;;;;;;;11.97;83.34;101797.34;5035345;28;20188;-72
2021/12/14 00:49:00;;;;;;;63.60;27.93;;;;;;;11.93;83.66;101789.50;5051987;28;20251;-72
2021/12/14 00:51:28;;;;;;;66.33;28.07;;;;;;;11.90;84.08;101801.22;5035286;28;20177;-72
2021/12/14 00:53:57;;;;;;;61.53;27.87;;;;;;;11.97;83.71;101783.09;5051922;28;20229;-72
2021/12/14 00:56:22;;;;;;;72.77;28.50;;;;;;;12.03;83.35;101793.53;5052273;28;20196;-72
2021/12/14 00:58:47;;;;;;;62.37;27.50;;;;;;;11.75;83.62;101775.06;5051758;28;20235;-72
2021/12/14 01:01:20;;;;;;;66.70;29.27;;;;;;;11.75;84.39;101792.00;5053238;28;20188;-72
2021/12/14 01:03:56;;;;;;;65.60;27.67;;;;;;;11.80;84.46;101790.03;5052990;28;20174;-71
2021/12/14 01:06:25;;;;;;;65.27;29.93;;;;;;;11.60;85.01;101792.66;5052054;28;20221;-72
2021/12/14 01:08:51;;;;;;;60.87;27.63;;;;;;;11.56;84.79;101781.22;5051857;28;20199;-72
2021/12/14 01:11:23;;;;;;;73.27;29.93;;;;;;;11.96;83.53;101787.56;5052009;28;20168;-72
2021/12/14 01:13:57;;;;;;;66.77;29.43;;;;;;;11.71;84.81;101795.72;5035111;28;20159;-72
2021/12/14 01:16:35;;;;;;;73.47;29.43;;;;;;;11.91;84.07;101780.69;5051806;28;20202;-72
2021/12/14 01:19:13;;;;;;;68.50;28.97;;;;;;;11.81;84.12;101783.72;5052010;28;20167;-72
2021/12/14 01:27:02;;;;;;;65.67;28.33;;;;;;;11.19;85.62;101781.88;5051857;28;20236;-72
2021/12/14 01:29:29;;;;;;;60.43;28.83;;;;;;;11.41;85.29;101787.19;5052787;28;20172;-72
2021/12/14 01:31:59;;;;;;;71.77;29.33;;;;;;;11.44;85.37;101781.72;5051459;28;20176;-72
2021/12/14 01:34:25;;;;;;;64.23;29.73;;;;;;;11.36;85.56;101788.31;5036419;28;20175;-71
2021/12/14 01:36:55;;;;;;;59.87;27.40;;;;;;;11.18;85.91;101787.28;5051714;28;20193;-72
2021/12/14 01:42:07;;;;;;;62.40;29.50;;;;;;;11.55;85.35;101790.19;5052119;28;20282;-72
2021/12/14 01:44:43;;;;;;;59.77;28.53;;;;;;;11.54;86.09;101788.44;5051490;28;20203;-72
2021/12/14 01:47:12;;;;;;;67.73;29.73;;;;;;;11.51;84.76;101760.94;5052901;28;20249;-72
2021/12/14 01:49:38;;;;;;;69.17;29.67;;;;;;;11.15;86.62;101777.56;5051625;28;20176;-72
2021/12/14 01:52:07;;;;;;;65.97;29.33;;;;;;;11.34;86.06;101779.47;5052589;28;20174;-72
2021/12/14 01:54:37;;;;;;;63.20;29.67;;;;;;;11.33;86.29;101775.06;5038710;28;20631;-72
2021/12/14 01:57:05;;;;;;;70.73;29.27;;;;;;;11.45;85.75;101782.56;5038686;28;20286;-72
2021/12/14 01:59:37;;;;;;;67.63;30.47;;;;;;;11.56;85.17;101780.34;5055310;28;20175;-72
2021/12/14 02:02:21;;;;;;;86.67;32.27;;;;;;;11.69;84.83;101776.22;5054893;28;20188;-72
2021/12/14 02:04:50;;;;;;;68.13;30.93;;;;;;;11.70;84.51;101779.75;5056217;28;20183;-72
2021/12/14 02:07:18;;;;;;;71.57;31.23;;;;;;;11.75;84.55;101783.97;5056123;28;20188;-72
2021/12/14 02:09:44;;;;;;;73.67;30.57;;;;;;;11.63;84.58;101768.47;5055026;28;20175;-72
2021/12/14 02:12:14;;;;;;;65.90;31.37;;;;;;;11.79;84.07;101777.59;5055906;28;20163;-71
2021/12/14 02:14:39;;;;;;;69.37;31.90;;;;;;;11.52;84.92;101768.00;5054643;28;20222;-70
2021/12/14 02:17:08;;;;;;;62.83;29.40;;;;;;;11.94;83.84;101775.19;5054525;28;20274;-71
2021/12/14 02:19:34;;;;;;;76.17;31.73;;;;;;;11.65;84.48;101765.72;5056034;28;20184;-71
2021/12/14 02:22:01;;;;;;;70.00;30.77;;;;;;;11.93;83.85;101773.47;5055869;28;20575;-71
2021/12/14 02:24:28;;;;;;;64.27;30.00;;;;;;;11.59;84.41;101751.69;5054685;28;20176;-71
2021/12/14 02:26:53;;;;;;;84.60;32.00;;;;;;;11.62;84.19;101749.81;5054562;28;20225;-71
2021/12/14 02:29:30;;;;;;;66.83;31.27;;;;;;;11.66;84.37;101746.06;5055489;28;20179;-71
2021/12/14 02:32:11;;;;;;;73.00;31.73;;;;;;;11.42;85.00;101751.50;5055580;28;20179;-70
2021/12/14 02:34:40;;;;;;;77.23;32.43;;;;;;;11.48;85.37;101753.03;5055891;28;20194;-70
2021/12/14 02:37:05;;;;;;;77.10;30.60;;;;;;;10.92;85.46;101727.72;5054190;28;20201;-72
2021/12/14 02:42:06;;;;;;;73.63;32.23;;;;;;;11.16;85.77;101733.91;5054431;28;20735;-71
2021/12/14 02:44:32;;;;;;;77.43;31.97;;;;;;;11.35;85.76;101743.81;5055705;28;20229;-71
2021/12/14 02:47:02;;;;;;;64.17;31.07;;;;;;;11.55;84.77;101731.34;5057671;28;20191;-71
2021/12/14 02:49:30;;;;;;;71.70;31.80;;;;;;;11.28;85.58;101732.50;5055453;28;20548;-71
2021/12/14 02:51:59;;;;;;;69.13;31.63;;;;;;;11.29;85.23;101728.91;5054119;28;20199;-71
2021/12/14 02:54:27;;;;;;;78.67;32.07;;;;;;;11.47;85.38;101724.56;5053914;28;20172;-70
2021/12/14 02:57:00;;;;;;;71.90;33.43;;;;;;;11.19;85.96;101722.22;5053810;28;20242;-69
2021/12/14 02:59:30;;;;;;;78.63;32.10;;;;;;;11.50;85.84;101732.47;5054847;28;20243;-71
2021/12/14 03:01:58;;;;;;;75.63;32.90;;;;;;;11.24;86.13;101731.78;5054764;28;20188;-71
2021/12/14 03:04:23;;;;;;;73.93;32.10;;;;;;;11.36;85.40;101726.84;5036122;28;20172;-71
2021/12/14 03:06:54;;;;;;;71.90;31.47;;;;;;;11.35;85.95;101717.94;5055347;28;20196;-70
2021/12/14 03:12:37;;;;;;;64.00;29.97;;;;;;;11.52;84.99;101710.09;5042580;28;20188;-71
2021/12/14 03:15:16;;;;;;;79.43;31.57;;;;;;;10.89;85.94;101697.59;5053585;28;20176;-71
2021/12/14 03:17:43;;;;;;;73.47;31.63;;;;;;;11.22;85.69;101693.56;5053690;28;20602;-70
2021/12/14 03:20:18;;;;;;;67.43;31.87;;;;;;;11.24;85.24;101689.00;5054490;28;20191;-71
2021/12/14 03:23:10;;;;;;;65.13;29.60;;;;;;;11.62;85.15;101709.69;5053354;28;20165;-70
2021/12/14 03:25:41;;;;;;;64.50;30.93;;;;;;;11.31;85.28;101686.06;5054604;28;20258;-71
2021/12/14 03:28:08;;;;;;;66.93;29.87;;;;;;;11.09;85.52;101678.94;5053287;28;20214;-70
2021/12/14 03:30:50;;;;;;;71.07;30.60;;;;;;;11.39;84.93;101679.47;5053565;28;20629;-72
2021/12/14 03:33:19;;;;;;;63.50;29.10;;;;;;;11.17;85.71;101682.19;5053860;28;20246;-72
2021/12/14 03:35:46;;;;;;;66.10;30.37;;;;;;;11.30;85.08;101666.50;5054231;28;20181;-72
2021/12/14 03:38:21;;;;;;;65.30;31.77;;;;;;;11.21;85.58;101678.47;5053333;28;20222;-71
2021/12/14 03:40:55;;;;;;;63.37;28.47;;;;;;;11.23;86.44;101695.28;5052859;28;20190;-72
2021/12/14 03:43:20;;;;;;;82.03;30.07;;;;;;;11.00;86.03;101684.69;5053575;28;20513;-71
2021/12/14 03:45:46;;;;;;;60.30;29.33;;;;;;;10.87;86.89;101692.34;5054045;28;20227;-71
2021/12/14 03:48:11;;;;;;;67.23;31.07;;;;;;;10.82;86.44;101667.63;5054172;28;20694;-71
2021/12/14 03:50:41;;;;;;;64.33;29.80;;;;;;;11.09;86.34;101670.94;5053285;28;20207;-71
2021/12/14 03:53:09;;;;;;;64.43;30.87;;;;;;;11.14;86.02;101663.59;5053202;28;20183;-71
2021/12/14 03:55:42;;;;;;;76.10;32.87;;;;;;;11.09;85.32;101657.56;5054589;28;20647;-70
2021/12/14 03:58:10;;;;;;;71.83;30.63;;;;;;;11.13;85.35;101647.63;5053819;28;20206;-71
2021/12/14 04:00:40;;;;;;;72.30;31.80;;;;;;;11.11;85.60;101654.84;5053276;28;20377;-71
2021/12/14 04:03:10;;;;;;;68.93;30.40;;;;;;;10.94;85.32;101639.53;5054268;28;20187;-71
2021/12/14 04:05:36;;;;;;;61.57;32.20;;;;;;;10.92;86.18;101641.41;5052878;28;20198;-70
2021/12/14 04:08:02;;;;;;;60.40;30.17;;;;;;;11.10;86.28;101658.44;5052600;28;20668;-71
2021/12/14 04:10:30;;;;;;;63.67;29.87;;;;;;;11.18;85.10;101649.19;5052423;28;20190;-70
2021/12/14 04:12:56;;;;;;;70.10;31.70;;;;;;;11.07;84.79;101632.72;5052496;28;20171;-70
2021/12/14 04:15:22;;;;;;;67.30;31.17;;;;;;;10.97;86.10;101636.72;5052215;28;20225;-71
2021/12/14 04:17:47;;;;;;;60.63;29.97;;;;;;;10.95;85.61;101628.78;5052191;28;20203;-70
2021/12/14 04:20:16;;;;;;;81.03;31.80;;;;;;;11.56;83.24;101626.16;5052089;28;20203;-71
2021/12/14 04:22:48;;;;;;;69.43;31.80;;;;;;;10.83;84.96;101623.97;5053493;28;20174;-71
2021/12/14 04:25:15;;;;;;;60.23;28.87;;;;;;;10.85;85.64;101623.91;5052546;28;20167;-68
2021/12/14 04:27:42;;;;;;;55.57;28.00;;;;;;;10.96;84.83;101622.50;5035389;28;20226;-71
2021/12/14 04:30:12;;;;;;;62.73;28.97;;;;;;;11.15;84.55;101643.09;5053396;28;20179;-71
2021/12/14 04:32:38;;;;;;;58.30;29.70;;;;;;;11.31;83.81;101644.19;5053403;28;20216;-71
2021/12/14 04:35:06;;;;;;;60.10;28.87;;;;;;;11.40;83.58;101650.94;5052110;28;20255;-70
2021/12/14 04:37:36;;;;;;;59.03;29.17;;;;;;;11.13;83.72;101628.91;5051767;28;20283;-71
2021/12/14 04:40:23;;;;;;;52.03;27.47;;;;;;;11.20;83.51;101631.28;5053399;28;20156;-71
2021/12/14 04:54:02;;;;;;;57.43;27.53;;;;;;;11.33;83.69;101645.00;5051451;28;20662;-70
2021/12/14 04:56:32;;;;;;;55.27;26.67;;;;;;;11.40;83.00;101642.91;5053230;28;20196;-71
2021/12/14 04:59:02;;;;;;;53.37;26.03;;;;;;;11.60;82.66;101648.28;5052112;28;20205;-70
2021/12/14 05:01:28;;;;;;;53.43;26.53;;;;;;;11.18;83.62;101637.63;5051927;28;20576;-71
2021/12/14 05:03:57;;;;;;;50.37;26.07;;;;;;;11.08;84.29;101649.63;5052221;28;20184;-70
2021/12/14 05:06:26;;;;;;;49.87;26.00;;;;;;;11.09;82.63;101625.50;5051961;28;20237;-69
2021/12/14 05:11:42;;;;;;;43.67;23.80;;;;;;;11.08;83.75;101620.25;5051944;28;20231;-70
2021/12/14 05:14:10;;;;;;;50.20;24.97;;;;;;;11.03;83.60;101628.44;5052933;28;20179;-70
2021/12/14 05:16:36;;;;;;;43.77;23.13;;;;;;;11.40;82.40;101624.19;5051446;28;20188;-70
2021/12/14 05:19:05;;;;;;;51.60;23.43;;;;;;;11.30;82.90;101634.44;5051636;28;20184;-68
2021/12/14 05:21:41;;;;;;;43.60;24.50;;;;;;;11.53;82.51;101639.66;5051395;28;20556;-71
2021/12/14 05:24:08;;;;;;;41.30;22.93;;;;;;;11.35;82.84;101632.44;5051486;28;20175;-68
2021/12/14 05:26:35;;;;;;;40.27;23.03;;;;;;;11.18;81.53;101602.91;5052897;28;20624;-69
2021/12/14 05:29:02;;;;;;;38.67;21.73;;;;;;;11.43;81.65;101610.69;5056889;28;20528;-69
2021/12/14 05:31:28;;;;;;;36.80;21.47;;;;;;;11.50;80.84;101613.03;5055890;28;20186;-70
2021/12/14 05:33:53;;;;;;;38.50;21.20;;;;;;;11.27;81.40;101607.84;5055512;28;20184;-68
2021/12/14 05:36:20;;;;;;;39.90;21.70;;;;;;;11.70;80.36;101611.28;5055426;28;20191;-69
2021/12/14 05:38:59;;;;;;;38.53;20.53;;;;;;;11.43;81.70;101616.03;5057320;28;20172;-69
2021/12/14 05:44:23;;;;;;;33.67;19.70;;;;;;;11.51;80.64;101601.41;5055544;28;20531;-71
2021/12/14 05:46:50;;;;;;;33.50;20.77;;;;;;;11.16;81.62;101586.06;5056376;28;20244;-70
2021/12/14 05:49:18;;;;;;;29.70;18.73;;;;;;;10.93;81.76;101592.38;5055364;28;20539;-69
2021/12/14 05:51:44;;;;;;;33.97;19.20;;;;;;;11.14;81.69;101602.13;5055795;28;20174;-69
2021/12/14 05:54:10;;;;;;;35.83;20.27;;;;;;;11.23;81.01;101580.38;5055083;28;20174;-69
2021/12/14 05:56:35;;;;;;;33.10;18.70;;;;;;;10.89;80.85;101562.28;5056208;28;20290;-70
2021/12/14 05:59:03;;;;;;;33.00;19.00;;;;;;;10.95;82.24;101595.84;5055493;28;20214;-70
2021/12/14 06:01:31;;;;;;;35.07;19.33;;;;;;;11.16;80.97;101578.06;5056274;28;20270;-69
2021/12/14 06:04:03;;;;;;;34.03;20.00;;;;;;;11.30;80.67;101564.06;5055460;28;20189;-70
2021/12/14 06:06:35;;;;;;;32.87;19.13;;;;;;;10.99;80.95;101559.19;5054854;28;20199;-70
2021/12/14 06:09:08;;;;;;;30.57;18.37;;;;;;;11.14;80.46;101553.19;5056030;28;20677;-69
2021/12/14 06:11:34;;;;;;;28.90;17.23;;;;;;;11.24;79.91;101546.53;5055898;28;20183;-68
2021/12/14 06:14:00;;;;;;;30.97;18.17;;;;;;;11.12;80.16;101547.91;5038434;28;20643;-70
2021/12/14 06:16:28;;;;;;;27.23;17.20;;;;;;;11.26;79.75;101547.31;5037703;28;20219;-70
2021/12/14 06:19:11;;;;;;;32.07;17.40;;;;;;;11.17;80.21;101561.97;5054969;28;20245;-71
2021/12/14 06:21:37;;;;;;;26.77;17.97;;;;;;;11.14;79.65;101554.03;5054828;28;20187;-71
2021/12/14 06:24:05;;;;;;;28.63;16.97;;;;;;;11.08;80.44;101550.78;5055364;28;20176;-71
2021/12/14 06:29:14;;;;;;;26.47;15.77;;;;;;;11.03;79.67;101566.16;5074327;28;20218;-66
2021/12/14 06:31:41;;;;;;;24.90;16.03;;;;;;;11.10;79.44;101562.25;5057901;28;20167;-66
2021/12/14 06:34:11;;;;;;;27.37;16.20;;;;;;;11.07;79.88;101573.09;5075426;28;20654;-66
2021/12/14 06:37:17;;;;;;;24.27;16.10;;;;;;;11.11;79.86;101580.03;5057392;28;20175;-67
2021/12/14 06:40:06;;;;;;;25.43;15.83;;;;;;;11.08;79.92;101569.47;5075384;28;20174;-68
2021/12/14 06:42:32;;;;;;;22.57;15.07;;;;;;;11.24;78.89;101570.56;5075488;28;20617;-67
2021/12/14 06:45:10;;;;;;;22.53;13.83;;;;;;;11.43;77.73;101570.59;5075309;28;20632;-67
2021/12/14 06:47:37;;;;;;;20.97;13.57;;;;;;;11.46;77.38;101565.97;5075275;28;20187;-67
2021/12/14 06:50:06;;;;;;;18.37;12.73;;;;;;;11.28;77.43;101570.34;5075266;28;20250;-67
2021/12/14 06:52:31;;;;;;;19.60;11.83;;;;;;;11.24;77.05;101559.88;5075105;28;20188;-67
2021/12/14 06:54:56;;;;;;;18.27;11.30;;;;;;;11.09;76.81;101571.22;5074815;28;20258;-67
2021/12/14 06:57:22;;;;;;;15.90;10.07;;;;;;;11.18;76.83;101569.03;5057974;28;20206;-67
2021/12/14 06:59:47;;;;;;;15.10;10.03;;;;;;;11.38;75.52;101572.63;5075294;28;20516;-67
2021/12/14 07:02:13;;;;;;;16.33;10.77;;;;;;;11.50;75.94;101586.28;5057055;28;20189;-67
2021/12/14 07:04:45;;;;;;;16.30;10.67;;;;;;;11.14;76.76;101603.94;5075057;28;20172;-67
2021/12/14 07:07:12;;;;;;;16.10;10.50;;;;;;;11.30;76.09;101580.13;5057398;28;20249;-67
2021/12/14 07:09:41;;;;;;;14.23;9.63;;;;;;;11.31;75.99;101592.53;5056958;28;20171;-68
2021/12/14 07:12:10;;;;;;;15.77;10.57;;;;;;;11.43;75.95;101597.34;5074770;28;20170;-67
2021/12/14 07:14:50;;;;;;;15.07;9.90;;;;;;;11.42;75.75;101588.44;5057466;28;20170;-68
2021/12/14 07:17:20;;;;;;;13.17;9.20;;;;;;;11.17;76.67;101585.13;5056627;28;20197;-68
2021/12/14 07:20:01;;;;;;;13.27;9.40;;;;;;;11.12;76.53;101597.78;5075826;28;20227;-68
2021/12/14 07:22:31;;;;;;;14.13;10.20;;;;;;;11.27;76.24;101575.78;5074868;28;20156;-67
2021/12/14 07:25:25;;;;;;;17.87;11.23;;;;;;;11.42;76.14;101591.13;5075774;28;20572;-67
2021/12/14 07:27:56;;;;;;;16.10;9.83;;;;;;;11.25;75.71;101581.19;5056466;28;20207;-67
2021/12/14 07:30:59;;;;;;;12.57;9.80;;;;;;;11.48;75.72;101590.84;5040276;28;20163;-67
2021/12/14 07:33:28;;;;;;;14.27;10.90;;;;;;;11.17;76.44;101610.06;4977033;28;20187;-67
2021/12/14 07:36:08;;;;;;;16.40;10.90;;;;;;;11.24;76.82;101605.31;5041631;28;20198;-68
2021/12/14 07:38:40;;;;;;;15.87;10.23;;;;;;;11.10;77.15;101615.69;5056445;28;20271;-68
2021/12/14 07:41:31;;;;;;;16.20;10.33;;;;;;;11.28;76.19;101602.44;5074730;28;20560;-66
2021/12/14 07:44:13;;;;;;;20.50;10.07;;;;;;;11.29;76.20;101611.31;5056726;28;20505;-68
2021/12/14 07:46:42;;;;;;;14.50;9.80;;;;;;;11.38;76.60;101629.63;5056786;28;20164;-68
2021/12/14 07:49:28;;;;;;;14.77;10.33;;;;;;;11.53;75.60;101614.72;5074485;28;20187;-67
2021/12/14 07:52:04;;;;;;;14.63;9.97;;;;;;;11.43;75.81;101621.38;5074385;28;20170;-68
2021/12/14 07:54:33;;;;;;;14.13;9.90;;;;;;;11.20;76.09;101609.06;5074481;28;20171;-67
2021/12/14 07:57:12;;;;;;;14.33;9.27;;;;;;;11.22;76.19;101605.38;5074504;28;20563;-67
2021/12/14 07:59:51;;;;;;;15.87;9.57;;;;;;;11.28;75.65;101596.22;5074434;28;20616;-67
2021/12/14 08:02:35;;;;;;;16.47;9.63;;;;;;;11.18;76.00;101590.41;5074385;28;20613;-67
2021/12/14 08:05:05;;;;;;;16.07;10.03;;;;;;;11.25;75.99;101589.19;5074070;28;20641;-68
2021/12/14 08:07:36;;;;;;;13.47;9.47;;;;;;;11.20;76.45;101601.91;5055663;28;20228;-67
2021/12/14 08:10:14;;;;;;;13.87;9.07;;;;;;;11.52;75.06;101613.84;5073852;28;20258;-70
2021/12/14 08:13:06;;;;;;;12.77;9.20;;;;;;;11.40;74.88;101610.84;5074914;28;20162;-67
2021/12/14 08:15:43;;;;;;;15.37;9.03;;;;;;;11.41;75.30;101610.78;5075704;28;20220;-67
2021/12/14 08:18:23;;;;;;;13.13;9.07;;;;;;;11.42;75.11;101603.63;5074517;28;20602;-68
2021/12/14 08:21:01;;;;;;;14.93;9.57;;;;;;;11.73;74.41;101617.34;5074229;28;20235;-67
2021/12/14 08:23:30;;;;;;;14.97;8.87;;;;;;;11.46;75.18;101610.56;5055986;28;20173;-67
2021/12/14 08:26:05;;;;;;;13.00;8.87;;;;;;;11.41;74.95;101584.03;5056089;28;20520;-67
2021/12/14 08:28:31;;;;;;;14.07;9.50;;;;;;;11.42;74.55;101580.44;5073554;28;20708;-68
2021/12/14 08:31:05;;;;;;;14.43;9.00;;;;;;;11.46;74.65;101575.81;5074479;28;20170;-68
2021/12/14 08:33:31;;;;;;;13.57;8.87;;;;;;;11.45;74.81;101598.13;5073982;28;20162;-67
2021/12/14 08:36:01;;;;;;;14.37;8.93;;;;;;;11.89;73.48;101597.03;5073746;28;20266;-68
2021/12/14 08:38:30;;;;;;;11.87;8.60;;;;;;;11.45;74.25;101607.03;5055590;28;20185;-68
2021/12/14 08:41:00;;;;;;;11.97;7.83;;;;;;;11.51;73.85;101616.56;5039166;28;20198;-67
2021/12/14 08:43:32;;;;;;;13.43;9.07;;;;;;;11.57;74.34;101622.53;5055679;28;20162;-67
2021/12/14 08:46:01;;;;;;;14.30;8.37;;;;;;;11.65;73.77;101621.31;5073105;28;20336;-68
2021/12/14 08:48:31;;;;;;;10.70;8.13;;;;;;;12.07;73.23;101627.41;5073168;28;20191;-68
2021/12/14 08:51:15;;;;;;;11.60;7.83;;;;;;;11.87;73.45;101609.59;5073289;28;20170;-68
2021/12/14 08:54:05;;;;;;;13.03;8.67;;;;;;;11.85;73.52;101610.59;5055450;28;20163;-67
2021/12/14 08:56:33;;;;;;;11.80;8.03;;;;;;;12.04;73.28;101618.66;5046735;28;20192;-67
2021/12/14 08:58:59;;;;;;;12.60;7.47;;;;;;;11.82;72.82;101595.56;5073115;28;20655;-68
2021/12/14 09:01:28;;;;;;;14.83;9.00;;;;;;;12.03;72.81;101606.22;5073198;28;20195;-68
2021/12/14 09:04:07;;;;;;;12.07;8.27;;;;;;;11.87;73.61;101608.72;5077436;28;20280;-68
2021/12/14 09:06:37;;;;;;;17.20;8.00;;;;;;;11.65;73.14;101603.47;5059292;28;20250;-67
2021/12/14 09:09:13;;;;;;;13.07;7.77;;;;;;;11.73;73.38;101614.69;5077546;28;20249;-68
2021/12/14 09:11:40;;;;;;;10.83;7.57;;;;;;;11.88;73.52;101615.81;5059685;28;20169;-68
2021/12/14 09:14:09;;;;;;;13.47;8.53;;;;;;;11.81;73.08;101619.72;5059063;28;20639;-66
2021/12/14 09:16:36;;;;;;;10.37;7.33;;;;;;;11.46;73.38;101602.53;5059526;28;20637;-68
2021/12/14 09:19:06;;;;;;;13.90;8.13;;;;;;;11.79;73.44;101626.94;5076910;28;20649;-66
2021/12/14 09:21:42;;;;;;;9.97;7.37;;;;;;;11.78;72.70;101619.84;5059421;28;20551;-67
2021/12/14 09:24:11;;;;;;;10.03;7.13;;;;;;;11.50;73.49;101620.19;5077277;28;20240;-67
2021/12/14 09:26:41;;;;;;;8.77;6.97;;;;;;;11.56;73.60;101617.25;5077265;28;20174;-67
2021/12/14 09:29:10;;;;;;;12.90;7.90;;;;;;;11.40;74.29;101609.03;5076790;28;20258;-67
2021/12/14 09:31:39;;;;;;;13.27;8.03;;;;;;;11.36;74.41;101596.75;5042409;28;20769;-67
2021/12/14 09:34:06;;;;;;;11.07;7.00;;;;;;;11.63;73.66;101597.31;5077875;28;20260;-67
2021/12/14 09:36:32;;;;;;;11.80;8.50;;;;;;;11.41;73.70;101591.19;5077084;28;20240;-68
2021/12/14 09:39:09;;;;;;;14.47;9.63;;;;;;;11.84;72.94;101599.03;5076967;28;20311;-68
2021/12/14 09:41:36;;;;;;;11.13;7.90;;;;;;;11.77;72.90;101610.06;5077104;28;20181;-68
2021/12/14 09:44:05;;;;;;;10.87;7.57;;;;;;;11.64;73.45;101596.38;5058815;28;20613;-68
2021/12/14 09:46:30;;;;;;;14.60;9.03;;;;;;;11.66;73.21;101593.66;5076511;28;20603;-68
2021/12/14 09:48:58;;;;;;;9.97;8.03;;;;;;;11.67;73.22;101587.34;5076708;28;20206;-67
2021/12/14 09:51:29;;;;;;;12.20;7.87;;;;;;;11.85;73.22;101600.78;5058704;28;20314;-67
2021/12/14 09:53:56;;;;;;;11.10;8.20;;;;;;;11.83;72.73;101588.41;5058927;28;20168;-67
2021/12/14 09:56:25;;;;;;;10.53;8.33;;;;;;;11.89;72.82;101610.41;5058621;28;20205;-67
2021/12/14 09:58:58;;;;;;;12.40;8.13;;;;;;;11.70;72.80;101601.44;5077212;28;20503;-67
2021/12/14 10:01:30;;;;;;;9.20;7.80;;;;;;;11.72;73.90;101606.72;5059848;28;20209;-67
2021/12/14 10:03:58;;;;;;;12.40;7.77;;;;;;;11.49;74.12;101605.94;5076469;28;20234;-67
2021/12/14 10:06:28;;;;;;;12.00;7.63;;;;;;;11.56;73.86;101591.41;5058507;28;20181;-66
2021/12/14 10:08:59;;;;;;;12.67;7.77;;;;;;;11.59;74.10;101603.75;5076839;28;20175;-67
2021/12/14 10:11:59;;;;;;;11.77;8.17;;;;;;;11.63;74.00;101599.13;5059443;28;20211;-67
2021/12/14 10:14:20;;;;;;;11.30;8.00;;;;;;;11.67;73.61;101579.34;5074918;28;20584;-67
2021/12/14 10:16:46;;;;;;;11.90;9.03;;;;;;;11.85;73.49;101590.06;5076025;28;20201;-67
2021/12/14 10:19:14;;;;;;;12.30;9.00;;;;;;;11.61;74.43;101579.63;5076303;28;20181;-68
2021/12/14 10:21:45;;;;;;;12.53;8.40;;;;;;;11.40;75.53;101589.44;5075780;28;20193;-67
2021/12/14 10:24:10;;;;;;;14.90;9.00;;;;;;;11.20;76.84;101595.69;5076199;28;20182;-67
2021/12/14 10:26:40;;;;;;;13.93;9.47;;;;;;;11.30;77.01;101599.69;5058102;28;20189;-67
2021/12/14 10:29:06;;;;;;;14.00;9.67;;;;;;;11.12;78.49;101587.97;5076512;28;20173;-66
2021/12/14 10:31:37;;;;;;;14.83;10.07;;;;;;;10.85;79.13;101598.06;5057764;28;20170;-67
2021/12/14 10:34:05;;;;;;;15.43;10.03;;;;;;;10.93;80.02;101613.75;5058802;28;20167;-68
2021/12/14 10:36:36;;;;;;;15.93;10.53;;;;;;;10.79;79.85;101602.78;5075812;28;20174;-66
2021/12/14 10:39:23;;;;;;;18.60;10.23;;;;;;;10.89;81.91;101628.16;5075776;28;20186;-67
2021/12/14 10:44:40;;;;;;;18.13;11.40;;;;;;;11.04;81.27;101618.63;5075637;28;20642;-66
2021/12/14 10:47:08;;;;;;;16.40;10.57;;;;;;;10.88;80.86;101603.28;5075849;28;20198;-66
2021/12/14 10:49:33;;;;;;;16.40;11.67;;;;;;;10.96;80.04;101594.94;5060207;28;20179;-67
2021/12/14 10:52:05;;;;;;;16.00;10.37;;;;;;;11.06;80.01;101601.59;5081838;28;20171;-67
2021/12/14 10:54:30;;;;;;;15.83;10.60;;;;;;;10.98;80.47;101608.22;5076583;28;20175;-66
2021/12/14 10:57:00;;;;;;;20.03;11.70;;;;;;;10.97;80.39;101615.34;5075556;28;20666;-67
2021/12/14 10:59:29;;;;;;;19.70;11.13;;;;;;;10.78;81.60;101633.06;5075733;28;20308;-66
2021/12/14 11:01:56;;;;;;;17.47;11.40;;;;;;;10.99;80.46;101615.28;5075893;28;20327;-66
2021/12/14 11:04:36;;;;;;;17.43;11.20;;;;;;;10.88;81.52;101613.94;5057993;28;20183;-68
2021/12/14 11:07:06;;;;;;;17.93;11.77;;;;;;;11.15;80.35;101613.69;5075533;28;20236;-66
2021/12/14 11:09:42;;;;;;;20.63;12.23;;;;;;;11.08;80.41;101618.44;5075108;28;20179;-66
2021/12/14 11:12:15;;;;;;;18.73;12.03;;;;;;;11.05;81.40;101617.69;5075106;28;20155;-67
2021/12/14 11:14:41;;;;;;;20.17;12.00;;;;;;;11.28;80.05;101620.28;5075253;28;20220;-67
2021/12/14 11:20:16;;;;;;;20.40;14.13;;;;;;;11.20;81.22;101622.41;5075009;28;20309;-67
2021/12/14 11:22:47;;;;;;;22.83;13.40;;;;;;;11.20;81.39;101617.94;5061888;28;20159;-67
2021/12/14 11:25:20;;;;;;;19.73;13.27;;;;;;;11.42;81.10;101625.00;5085251;28;20178;-66
2021/12/14 11:27:51;;;;;;;21.13;13.07;;;;;;;10.86;83.37;101620.28;5086174;28;20207;-66
2021/12/14 11:30:23;;;;;;;25.67;13.57;;;;;;;10.99;82.62;101612.63;5087604;28;20178;-66
2021/12/14 11:33:10;;;;;;;20.33;14.03;;;;;;;11.27;82.95;101630.09;5085236;28;20167;-66
2021/12/14 11:35:40;;;;;;;24.70;15.50;;;;;;;11.36;82.07;101612.78;5067793;28;20181;-67
2021/12/14 11:38:12;;;;;;;29.10;15.97;;;;;;;11.05;83.14;101601.66;5086794;28;20258;-66
2021/12/14 11:40:38;;;;;;;24.03;15.13;;;;;;;11.08;84.02;101607.75;5063576;28;20617;-65
2021/12/14 11:43:15;;;;;;;27.87;16.60;;;;;;;11.06;83.44;101598.94;5059295;28;20222;-68
2021/12/14 11:45:41;;;;;;;25.57;15.67;;;;;;;11.10;83.78;101615.69;5040148;28;20174;-68
2021/12/14 11:48:07;;;;;;;24.23;15.03;;;;;;;10.89;84.14;101618.34;5056620;28;20262;-66
2021/12/14 11:50:45;;;;;;;29.23;16.90;;;;;;;11.10;83.82;101635.25;5074133;28;20203;-66
2021/12/14 11:53:15;;;;;;;28.77;18.60;;;;;;;11.09;84.00;101627.31;5056127;28;20217;-66
2021/12/14 11:55:44;;;;;;;48.43;30.67;;;;;;;11.27;83.55;101624.75;5074219;28;20635;-67
2021/12/14 11:58:33;;;;;;;37.30;20.53;;;;;;;11.15;83.77;101633.28;5073869;28;20195;-67
2021/12/14 12:01:09;;;;;;;33.33;17.43;;;;;;;10.97;84.31;101631.38;5057042;28;20179;-66
2021/12/14 12:03:34;;;;;;;29.93;17.03;;;;;;;10.94;83.99;101621.69;5074094;28;20603;-66
2021/12/14 12:06:14;;;;;;;37.23;17.13;;;;;;;11.10;84.89;101647.75;5073689;28;20178;-67
2021/12/14 12:11:37;;;;;;;32.53;17.13;;;;;;;11.01;84.60;101624.09;5074921;28;20159;-66
2021/12/14 12:14:23;;;;;;;30.83;17.23;;;;;;;11.32;83.91;101647.72;5075038;28;20183;-66
2021/12/14 12:16:49;;;;;;;31.77;18.27;;;;;;;10.91;84.04;101637.84;5074332;28;20659;-67